Time;durP1;ratioP1;P1;durP2;ratioP2;P2;SDS_P1;SDS_P2;PMS_P1;PMS_P2;Temp;Humidity;BMP_temperature;BMP_pressure;BME280_temperature;BME280_humidity;BME280_pressure;Samples;Min_cycle;Max_cycle;Signal;HPM_P1;HPM_P2
2022/06/26 00:00:43;;;;;;;7.30;4.07;;;;;;;17.30;100.00;101226.19;5012551;28;20384;-30
2022/06/26 00:03:11;;;;;;;6.65;2.80;;;;;;;17.27;100.00;101221.22;5011888;28;20482;-27
2022/06/26 00:05:40;;;;;;;7.00;3.30;;;;;;;17.23;100.00;101235.16;5012102;28;20045;-28
2022/06/26 00:08:08;;;;;;;7.03;2.55;;;;;;;17.21;100.00;101220.56;5012238;28;20053;-28
2022/06/26 00:10:37;;;;;;;4.82;2.63;;;;;;;17.20;100.00;101218.91;5012544;28;20045;-26
2022/06/26 00:13:05;;;;;;;7.88;3.38;;;;;;;17.18;100.00;101241.00;5011835;28;20041;-28
2022/06/26 00:15:33;;;;;;;7.30;2.80;;;;;;;17.13;100.00;101227.88;5012001;28;20140;-34
2022/06/26 00:18:01;;;;;;;7.18;2.38;;;;;;;17.10;100.00;101220.09;5012446;28;20136;-31
2022/06/26 00:20:29;;;;;;;4.13;2.05;;;;;;;17.09;100.00;101212.78;5011149;28;20052;-32
2022/06/26 00:22:57;;;;;;;4.63;2.28;;;;;;;17.09;100.00;101212.78;5012081;28;20077;-28
2022/06/26 00:25:24;;;;;;;3.50;1.58;;;;;;;17.07;100.00;101209.47;5011625;28;20048;-29
2022/06/26 00:27:54;;;;;;;6.85;3.25;;;;;;;17.08;100.00;101201.84;5011830;28;20508;-29
2022/06/26 00:30:21;;;;;;;7.25;2.55;;;;;;;17.06;100.00;101207.81;5011423;28;20073;-32
2022/06/26 00:32:50;;;;;;;5.20;1.90;;;;;;;17.05;100.00;101208.97;5010543;28;20060;-31
2022/06/26 00:35:17;;;;;;;6.82;2.35;;;;;;;17.03;100.00;101218.94;5011524;28;20136;-28
2022/06/26 00:37:44;;;;;;;4.28;1.92;;;;;;;17.02;100.00;101223.75;5010919;28;20137;-29
2022/06/26 00:40:12;;;;;;;7.07;2.38;;;;;;;17.00;100.00;101231.69;5010868;28;20083;-30
2022/06/26 00:42:40;;;;;;;6.55;2.20;;;;;;;16.98;100.00;101233.22;5011919;28;20072;-34
2022/06/26 00:45:10;;;;;;;5.78;2.20;;;;;;;16.96;100.00;101230.75;5011629;28;20402;-28
2022/06/26 00:47:38;;;;;;;3.05;1.73;;;;;;;16.95;100.00;101236.72;5011041;28;20076;-34
2022/06/26 00:50:08;;;;;;;3.05;1.63;;;;;;;16.94;100.00;101233.06;5011645;28;20048;-28
2022/06/26 00:52:38;;;;;;;4.60;1.80;;;;;;;16.94;100.00;101244.34;5001458;28;20503;-28
2022/06/26 00:55:07;;;;;;;4.20;2.03;;;;;;;16.93;100.00;101230.56;5010609;28;20507;-32
2022/06/26 00:57:35;;;;;;;3.92;1.90;;;;;;;16.92;100.00;101234.53;5011917;28;20050;-31
2022/06/26 01:00:05;;;;;;;5.05;1.88;;;;;;;16.93;100.00;101233.38;5023246;28;20443;-31
2022/06/26 01:02:35;;;;;;;2.90;1.60;;;;;;;16.93;100.00;101241.84;5010893;28;20078;-28
2022/06/26 01:05:04;;;;;;;4.50;1.75;;;;;;;16.92;100.00;101237.38;5011231;28;20064;-28
2022/06/26 01:07:32;;;;;;;3.53;1.27;;;;;;;16.91;100.00;101221.63;5011265;28;20049;-35
2022/06/26 01:10:01;;;;;;;2.50;1.13;;;;;;;16.90;100.00;101226.44;5024931;28;20046;-30
2022/06/26 01:12:30;;;;;;;4.93;1.50;;;;;;;16.90;100.00;101222.78;5002718;28;20416;-33
2022/06/26 01:15:01;;;;;;;3.72;1.60;;;;;;;16.87;100.00;101222.28;5003146;28;20096;-29
2022/06/26 01:17:31;;;;;;;3.97;1.52;;;;;;;16.86;100.00;101225.44;5022564;28;20071;-27
2022/06/26 01:20:02;;;;;;;5.22;1.60;;;;;;;16.84;100.00;101222.94;5026211;28;20049;-36
2022/06/26 01:22:31;;;;;;;5.07;1.92;;;;;;;16.84;100.00;101245.47;5009249;28;20159;-30
2022/06/26 01:24:59;;;;;;;3.95;1.83;;;;;;;16.83;100.00;101240.19;4992660;28;20054;-27
2022/06/26 01:27:29;;;;;;;3.42;1.70;;;;;;;16.81;100.00;101234.03;5011426;28;20042;-33
2022/06/26 01:29:58;;;;;;;4.75;1.85;;;;;;;16.79;100.00;101228.72;5008998;28;20495;-35
2022/06/26 01:32:26;;;;;;;4.63;1.98;;;;;;;16.77;100.00;101228.25;5009733;28;20061;-29
2022/06/26 01:34:54;;;;;;;3.22;1.50;;;;;;;16.77;100.00;101231.09;5006611;28;20455;-33
2022/06/26 01:37:22;;;;;;;4.90;1.95;;;;;;;16.76;100.00;101235.06;5007983;28;20450;-31
2022/06/26 01:39:51;;;;;;;2.60;1.20;;;;;;;16.74;100.00;101240.19;5006722;28;20056;-27
2022/06/26 01:42:19;;;;;;;2.95;1.30;;;;;;;16.72;100.00;101236.88;5006734;28;20069;-27
2022/06/26 01:44:47;;;;;;;2.50;1.15;;;;;;;16.71;100.00;101234.38;5005879;28;20062;-29
2022/06/26 01:47:15;;;;;;;3.28;1.48;;;;;;;16.72;100.00;101239.69;5004685;28;20528;-28
2022/06/26 01:49:43;;;;;;;4.43;1.27;;;;;;;16.72;100.00;101238.88;5006410;28;20424;-27
2022/06/26 01:52:11;;;;;;;3.45;1.60;;;;;;;16.72;100.00;101241.69;5001939;28;20096;-28
2022/06/26 01:54:38;;;;;;;4.65;2.00;;;;;;;16.72;100.00;101238.88;4995897;28;20047;-30
2022/06/26 01:57:08;;;;;;;2.38;1.38;;;;;;;16.72;100.00;101236.88;5001356;28;20089;-34
2022/06/26 01:59:36;;;;;;;2.40;1.73;;;;;;;16.72;100.00;101228.44;5009597;28;20046;-33
2022/06/26 02:02:09;;;;;;;3.30;1.40;;;;;;;16.72;100.00;101230.41;5009687;28;20631;-28
2022/06/26 02:04:37;;;;;;;2.13;1.35;;;;;;;16.73;100.00;101230.09;5009128;28;20380;-28
2022/06/26 02:07:05;;;;;;;3.60;1.35;;;;;;;16.75;100.00;101221.31;5010893;28;20457;-32
2022/06/26 02:15:09;;;;;;;3.50;1.60;;;;;;;16.73;100.00;101218.81;5025412;28;20574;-31
2022/06/26 02:17:38;;;;;;;2.85;1.50;;;;;;;16.74;100.00;101220.47;4998112;28;20073;-33
2022/06/26 02:20:07;;;;;;;2.35;1.63;;;;;;;16.76;100.00;101220.97;5006842;28;20129;-27
2022/06/26 02:22:35;;;;;;;2.80;1.80;;;;;;;16.78;100.00;101229.09;5010935;28;20054;-31
2022/06/26 02:25:04;;;;;;;3.17;1.58;;;;;;;16.77;100.00;101225.44;5013018;28;20554;-36
2022/06/26 02:27:33;;;;;;;3.00;1.50;;;;;;;16.77;100.00;101219.81;5013017;28;20057;-30
2022/06/26 02:30:02;;;;;;;2.70;1.60;;;;;;;16.79;100.00;101220.28;5018001;28;20415;-30
2022/06/26 02:32:30;;;;;;;3.17;1.90;;;;;;;16.79;100.00;101225.09;5027904;28;20050;-31
2022/06/26 02:34:58;;;;;;;4.47;1.98;;;;;;;16.79;100.00;101231.56;5013662;28;20050;-30
2022/06/26 02:37:25;;;;;;;3.75;2.42;;;;;;;16.79;100.00;101225.91;5012935;28;20080;-28
2022/06/26 02:39:53;;;;;;;5.30;3.63;;;;;;;16.79;100.00;101236.34;5011943;28;20096;-30
2022/06/26 02:42:23;;;;;;;5.07;3.50;;;;;;;16.79;100.00;101242.00;5010077;28;20084;-27
2022/06/26 02:44:53;;;;;;;4.07;2.72;;;;;;;16.78;100.00;101244.03;5013880;28;20846;-31
2022/06/26 02:47:22;;;;;;;3.08;2.60;;;;;;;16.77;100.00;101241.53;5008675;28;20046;-29
2022/06/26 02:49:50;;;;;;;5.40;2.97;;;;;;;16.76;100.00;101237.88;5011441;28;20064;-33
2022/06/26 02:52:21;;;;;;;5.63;3.70;;;;;;;16.75;100.00;101246.66;5009485;28;20137;-30
2022/06/26 02:54:50;;;;;;;4.75;4.00;;;;;;;16.74;100.00;101242.19;5009190;28;20983;-27
2022/06/26 02:57:18;;;;;;;5.10;2.97;;;;;;;16.73;100.00;101235.72;5009463;28;20057;-28
2022/06/26 02:59:46;;;;;;;6.57;4.82;;;;;;;16.73;100.00;101237.72;5008135;28;20054;-29
2022/06/26 03:02:15;;;;;;;5.68;4.18;;;;;;;16.73;100.00;101230.09;5008198;28;20474;-32
2022/06/26 03:04:51;;;;;;;4.70;4.10;;;;;;;16.71;100.00;101234.38;5007148;28;20076;-32
2022/06/26 03:07:19;;;;;;;7.63;4.60;;;;;;;16.72;100.00;101225.59;5008590;28;20137;-30
2022/06/26 03:09:48;;;;;;;4.45;3.58;;;;;;;16.71;100.00;101223.94;5005501;28;20185;-33
2022/06/26 03:12:16;;;;;;;6.65;4.85;;;;;;;16.70;100.00;101219.47;5008997;28;20121;-30
2022/06/26 03:14:44;;;;;;;10.75;7.50;;;;;;;16.69;100.00;101223.44;5003360;28;20081;-30
2022/06/26 03:17:12;;;;;;;10.95;8.73;;;;;;;16.66;100.00;101226.94;5012831;28;20037;-28
2022/06/26 03:19:41;;;;;;;8.48;7.18;;;;;;;16.65;100.00;101222.44;5011340;28;20050;-35
2022/06/26 03:22:10;;;;;;;9.43;7.35;;;;;;;16.63;100.00;101227.59;5008329;28;20054;-29
2022/06/26 03:24:38;;;;;;;10.00;7.35;;;;;;;16.61;100.00;101238.31;5026337;28;20052;-29
2022/06/26 03:27:06;;;;;;;7.40;6.63;;;;;;;16.60;100.00;101244.28;5027400;28;20492;-28
2022/06/26 03:29:35;;;;;;;11.15;7.60;;;;;;;16.57;100.00;101244.97;5006377;28;20419;-27
2022/06/26 03:32:07;;;;;;;12.27;8.55;;;;;;;16.52;100.00;101243.97;5003180;28;20058;-30
2022/06/26 03:34:42;;;;;;;11.52;7.88;;;;;;;16.47;100.00;101240.47;4996198;28;20410;-28
2022/06/26 03:37:10;;;;;;;10.55;7.50;;;;;;;16.43;100.00;101245.09;5010546;28;20069;-27
2022/06/26 03:39:38;;;;;;;10.75;7.88;;;;;;;16.42;100.00;101251.88;5011461;28;20038;-30
2022/06/26 03:42:06;;;;;;;10.70;7.30;;;;;;;16.41;100.00;101241.78;5021747;28;20050;-27
2022/06/26 03:44:38;;;;;;;11.05;8.15;;;;;;;16.37;100.00;101252.91;5009589;28;20043;-28
2022/06/26 03:47:06;;;;;;;10.57;6.82;;;;;;;16.35;100.00;101257.19;5012840;28;20120;-27
2022/06/26 03:49:33;;;;;;;11.82;9.25;;;;;;;16.33;100.00;101262.31;5012145;28;20050;-30
2022/06/26 03:52:04;;;;;;;11.52;9.20;;;;;;;16.31;100.00;101271.09;5000440;28;20045;-28
2022/06/26 03:54:34;;;;;;;10.02;7.20;;;;;;;16.28;100.00;101262.47;4991785;28;20113;-31
2022/06/26 03:57:02;;;;;;;10.73;7.40;;;;;;;16.23;100.00;101265.44;5009669;28;20048;-32
2022/06/26 03:59:30;;;;;;;8.18;5.85;;;;;;;16.16;100.00;101268.75;5011485;28;20566;-28
2022/06/26 04:02:01;;;;;;;9.32;6.35;;;;;;;16.13;100.00;101263.78;5011026;28;20046;-27
2022/06/26 04:04:31;;;;;;;8.38;5.82;;;;;;;16.11;100.00;101278.16;5007287;28;20054;-30
2022/06/26 04:06:58;;;;;;;7.68;5.90;;;;;;;16.12;100.00;101288.28;5008273;28;20525;-27
2022/06/26 04:09:35;;;;;;;6.68;5.28;;;;;;;16.13;100.00;101289.94;5008302;28;20064;-30
2022/06/26 04:12:04;;;;;;;7.55;6.25;;;;;;;16.13;100.00;101289.94;5014185;28;20125;-30
2022/06/26 04:14:36;;;;;;;;;;;;;;;16.06;100.00;101298.03;5020081;28;20111;-33
2022/06/26 04:17:04;;;;;;;7.95;5.40;;;;;;;16.02;100.00;101305.44;5010570;28;19968;-31
2022/06/26 04:19:32;;;;;;;7.63;5.53;;;;;;;16.03;100.00;101298.66;5024026;28;20049;-29
2022/06/26 04:22:00;;;;;;;6.97;4.82;;;;;;;16.03;100.00;101303.47;5012326;28;20123;-32
2022/06/26 04:24:28;;;;;;;6.93;5.38;;;;;;;16.03;100.00;101301.47;5010265;28;20046;-27
2022/06/26 04:26:57;;;;;;;10.40;5.70;;;;;;;16.06;100.00;101300.00;5010156;28;20045;-28
2022/06/26 04:29:27;;;;;;;10.07;6.18;;;;;;;16.09;100.00;101303.00;5010862;28;20148;-29
2022/06/26 04:31:55;;;;;;;10.00;4.68;;;;;;;16.12;100.00;101309.97;5004667;28;20123;-33
2022/06/26 04:34:24;;;;;;;6.53;3.70;;;;;;;16.14;100.00;101311.31;5022373;28;20054;-27
2022/06/26 04:36:53;;;;;;;8.57;4.53;;;;;;;16.16;100.00;101303.38;4993655;28;20045;-30
2022/06/26 04:39:23;;;;;;;7.07;3.70;;;;;;;16.20;100.00;101309.16;5002236;28;20056;-28
2022/06/26 04:41:51;;;;;;;6.15;3.17;;;;;;;16.22;100.00;101306.00;4994706;28;20051;-34
2022/06/26 04:44:20;;;;;;;9.23;4.32;;;;;;;16.24;100.00;101312.97;5011118;28;20561;-27
2022/06/26 04:46:53;;;;;;;7.70;4.10;;;;;;;16.26;100.00;101309.84;5009147;28;20076;-29
2022/06/26 04:49:26;;;;;;;8.10;4.13;;;;;;;16.26;100.00;101318.28;5009936;28;20057;-32
2022/06/26 04:51:54;;;;;;;5.88;3.78;;;;;;;16.25;100.00;101313.81;5010223;28;20088;-29
2022/06/26 04:54:31;;;;;;;7.53;3.72;;;;;;;16.26;100.00;101323.94;4997567;28;20074;-30
2022/06/26 04:56:58;;;;;;;7.10;4.53;;;;;;;16.29;100.00;101323.28;5009596;28;20553;-29
2022/06/26 04:59:28;;;;;;;7.00;4.07;;;;;;;16.32;100.00;101337.53;5023073;28;20553;-29
2022/06/26 05:02:03;;;;;;;6.88;3.70;;;;;;;16.35;100.00;101342.53;5009250;28;20136;-30
2022/06/26 05:04:50;;;;;;;9.20;4.60;;;;;;;16.35;100.00;101336.06;5006977;28;20056;-29
2022/06/26 05:07:20;;;;;;;7.28;3.90;;;;;;;16.36;100.00;101340.53;4993224;28;20054;-28
2022/06/26 05:09:48;;;;;;;6.45;3.72;;;;;;;16.38;100.00;101343.88;5011229;28;20057;-33
2022/06/26 05:12:16;;;;;;;5.68;3.53;;;;;;;16.40;100.00;101347.16;5010051;28;20057;-27
2022/06/26 05:15:04;;;;;;;6.90;3.50;;;;;;;16.40;100.00;101344.34;5007893;28;20061;-33
2022/06/26 05:17:44;;;;;;;7.53;3.58;;;;;;;16.38;100.00;101347.50;5008247;28;20535;-27
2022/06/26 05:20:16;;;;;;;6.40;3.55;;;;;;;16.43;100.00;101349.31;4998179;28;20486;-28
2022/06/26 05:22:44;;;;;;;6.00;3.03;;;;;;;16.47;100.00;101351.16;5007327;28;20371;-29
2022/06/26 05:25:14;;;;;;;5.13;3.30;;;;;;;16.48;100.00;101360.44;5000129;28;20065;-28
2022/06/26 05:27:42;;;;;;;5.32;3.35;;;;;;;16.49;100.00;101354.50;4991680;28;20551;-34
2022/06/26 05:30:13;;;;;;;8.20;3.67;;;;;;;16.51;100.00;101359.81;5008641;28;20050;-29
2022/06/26 05:32:42;;;;;;;6.25;3.40;;;;;;;16.54;100.00;101362.81;5006976;28;20046;-34
2022/06/26 05:35:17;;;;;;;5.10;3.20;;;;;;;16.58;100.00;101362.16;5007999;28;20042;-34
2022/06/26 05:37:45;;;;;;;7.05;3.55;;;;;;;16.59;100.00;101370.25;5006090;28;20107;-32
2022/06/26 05:40:13;;;;;;;6.00;3.50;;;;;;;16.62;100.00;101366.78;5006130;28;20064;-27
2022/06/26 05:42:42;;;;;;;7.55;3.60;;;;;;;16.66;100.00;101367.81;5008140;28;20081;-28
2022/06/26 05:45:13;;;;;;;5.10;3.03;;;;;;;16.72;100.00;101372.16;5000075;28;20092;-27
2022/06/26 05:47:55;;;;;;;5.30;3.20;;;;;;;16.72;100.00;101371.31;5005024;28;20108;-28
2022/06/26 05:50:45;;;;;;;5.93;3.03;;;;;;;16.72;100.00;101363.69;5000750;28;20700;-30
2022/06/26 05:53:37;;;;;;;9.40;3.60;;;;;;;16.72;100.00;101366.53;5011594;28;20073;-26
2022/06/26 05:56:25;;;;;;;4.82;2.90;;;;;;;16.75;100.00;101370.66;4998031;28;20172;-28
2022/06/26 05:59:12;;;;;;;3.78;2.67;;;;;;;16.80;100.00;101362.88;5013130;28;20388;-28
2022/06/26 06:02:04;;;;;;;7.10;3.10;;;;;;;16.87;100.00;101379.31;5010634;28;20089;-29
2022/06/26 06:04:33;;;;;;;7.13;3.42;;;;;;;16.90;100.00;101384.28;5007707;28;20046;-30
2022/06/26 06:07:04;;;;;;;6.18;2.80;;;;;;;16.95;100.00;101378.50;5009756;28;20080;-32
2022/06/26 06:09:31;;;;;;;6.05;3.40;;;;;;;17.03;100.00;101388.13;5012061;28;20050;-27
2022/06/26 06:11:59;;;;;;;6.60;3.17;;;;;;;17.05;100.00;101391.44;5013041;28;20577;-28
2022/06/26 06:14:27;;;;;;;6.82;2.92;;;;;;;17.05;100.00;101382.97;5012546;28;20054;-30
2022/06/26 06:16:55;;;;;;;7.05;3.10;;;;;;;17.17;100.00;101383.16;5001954;28;20043;-28
2022/06/26 06:19:25;;;;;;;6.47;2.97;;;;;;;17.30;100.00;101399.09;4991811;28;20078;-37
2022/06/26 06:21:53;;;;;;;5.68;2.97;;;;;;;17.41;100.00;101383.47;5011739;28;20053;-28
2022/06/26 06:24:26;;;;;;;7.13;2.97;;;;;;;17.50;100.00;101400.41;5011955;28;20593;-29
2022/06/26 06:26:58;;;;;;;8.82;2.95;;;;;;;17.51;100.00;101394.44;5011951;28;20045;-29
2022/06/26 06:29:28;;;;;;;6.00;2.45;;;;;;;17.66;100.00;101395.94;5008831;28;20057;-36
2022/06/26 06:31:57;;;;;;;6.82;3.10;;;;;;;17.74;100.00;101411.22;5008346;28;20046;-26
2022/06/26 06:34:27;;;;;;;6.60;2.92;;;;;;;17.79;100.00;101419.50;5006795;28;20100;-30
2022/06/26 06:36:55;;;;;;;7.68;3.10;;;;;;;17.85;100.00;101416.16;5012828;28;20077;-34
2022/06/26 06:39:22;;;;;;;8.70;3.50;;;;;;;17.96;100.00;101416.66;5019100;28;20050;-30
2022/06/26 06:41:53;;;;;;;5.00;2.83;;;;;;;18.06;100.00;101421.13;5001444;28;20092;-33
2022/06/26 06:44:21;;;;;;;5.88;2.53;;;;;;;18.23;100.00;101421.06;5001728;28;20172;-28
2022/06/26 06:47:08;;;;;;;6.15;2.80;;;;;;;18.42;100.00;101431.97;5011306;28;20061;-33
2022/06/26 06:49:54;;;;;;;4.43;2.55;;;;;;;18.63;100.00;101430.06;5011736;28;20054;-34
2022/06/26 06:52:22;;;;;;;6.05;2.67;;;;;;;18.88;100.00;101420.63;5010269;28;20076;-28
2022/06/26 06:54:53;;;;;;;5.20;2.03;;;;;;;18.94;100.00;101424.09;5010482;28;20050;-29
2022/06/26 06:57:20;;;;;;;5.85;2.03;;;;;;;18.92;100.00;101437.75;5001228;28;20519;-29
2022/06/26 06:59:49;;;;;;;5.35;2.13;;;;;;;18.96;100.00;101444.38;4999910;28;20058;-28
2022/06/26 07:02:16;;;;;;;4.28;2.15;;;;;;;19.01;100.00;101446.16;5005322;28;20065;-32
2022/06/26 07:04:46;;;;;;;4.90;1.90;;;;;;;18.93;100.00;101453.56;5003941;28;20050;-28
2022/06/26 07:07:15;;;;;;;4.65;1.30;;;;;;;18.89;100.00;101453.41;5001513;28;20046;-35
2022/06/26 07:09:43;;;;;;;6.95;1.50;;;;;;;19.00;100.00;101461.47;5009347;28;20140;-30
2022/06/26 07:12:11;;;;;;;4.10;1.40;;;;;;;19.07;100.00;101468.25;5012237;28;20116;-32
2022/06/26 07:14:39;;;;;;;5.50;1.30;;;;;;;19.12;100.00;101479.41;5011625;28;20161;-28
2022/06/26 07:17:08;;;;;;;4.43;0.98;;;;;;;19.21;100.00;101477.31;5012245;28;20046;-28
2022/06/26 07:19:42;;;;;;;4.47;1.13;;;;;;;19.39;100.00;101489.34;5012372;28;20088;-31
2022/06/26 07:22:10;;;;;;;4.75;1.40;;;;;;;19.72;100.00;101497.16;5010323;28;20129;-30
2022/06/26 07:24:41;;;;;;;4.07;1.23;;;;;;;20.34;100.00;101501.91;5002532;28;20077;-30
2022/06/26 07:27:19;;;;;;;3.70;1.00;;;;;;;20.78;100.00;101503.91;4995933;28;20564;-33
2022/06/26 07:29:47;;;;;;;5.22;1.40;;;;;;;21.17;100.00;101507.25;5009836;28;20088;-32
2022/06/26 07:32:15;;;;;;;3.20;0.95;;;;;;;21.57;100.00;101505.34;5010690;28;20050;-29
2022/06/26 07:34:43;;;;;;;4.63;1.02;;;;;;;22.13;100.00;101528.16;5011162;28;20061;-31
2022/06/26 07:37:11;;;;;;;5.28;1.25;;;;;;;22.41;98.04;101522.44;5011801;28;20078;-29
2022/06/26 07:39:40;;;;;;;4.22;1.00;;;;;;;22.69;93.83;101528.09;5011648;28;20483;-29
2022/06/26 07:42:09;;;;;;;4.45;1.25;;;;;;;22.47;89.63;101526.69;5011309;28;20100;-29
2022/06/26 07:44:38;;;;;;;4.35;1.27;;;;;;;22.50;92.87;101527.97;5018915;28;20414;-32
2022/06/26 07:47:08;;;;;;;5.60;1.40;;;;;;;22.53;90.38;101525.22;5010556;28;20061;-32
2022/06/26 07:50:01;;;;;;;3.83;1.08;;;;;;;22.48;91.63;101530.34;5005312;28;20085;-31
2022/06/26 07:52:29;;;;;;;3.65;0.98;;;;;;;22.56;88.60;101515.13;5011782;28;20470;-30
2022/06/26 07:54:59;;;;;;;4.10;0.95;;;;;;;22.67;88.67;101522.75;5011571;28;20498;-29
2022/06/26 07:57:26;;;;;;;2.78;1.00;;;;;;;22.69;87.17;101526.06;5011091;28;20050;-29
2022/06/26 07:59:55;;;;;;;3.33;0.93;;;;;;;22.70;84.81;101529.75;5011144;28;20100;-32
2022/06/26 08:02:22;;;;;;;3.78;0.98;;;;;;;22.65;84.90;101524.31;5011544;28;20060;-33
2022/06/26 08:04:50;;;;;;;2.47;0.80;;;;;;;22.48;84.43;101539.72;5009925;28;20125;-29
2022/06/26 08:07:18;;;;;;;3.97;0.95;;;;;;;22.40;86.36;101534.16;5010821;28;20530;-38
2022/06/26 08:09:47;;;;;;;3.03;0.90;;;;;;;22.27;85.17;101536.25;5009609;28;20041;-34
2022/06/26 08:12:16;;;;;;;3.60;1.13;;;;;;;22.14;86.56;101531.81;5011363;28;20107;-34
2022/06/26 08:14:44;;;;;;;3.65;0.90;;;;;;;22.15;87.51;101530.63;5010624;28;20399;-35
2022/06/26 08:17:12;;;;;;;3.55;1.08;;;;;;;22.30;87.67;101544.91;5009908;28;20124;-28
2022/06/26 08:19:40;;;;;;;3.72;1.17;;;;;;;22.47;85.05;101551.44;5010725;28;20554;-36
2022/06/26 08:22:08;;;;;;;3.25;1.00;;;;;;;22.62;84.03;101554.31;5006548;28;20137;-28
2022/06/26 08:24:38;;;;;;;3.33;0.88;;;;;;;22.79;83.14;101546.66;5010036;28;20052;-30
2022/06/26 08:27:06;;;;;;;4.07;1.20;;;;;;;22.91;84.02;101544.56;5010803;28;20069;-30
2022/06/26 08:29:35;;;;;;;2.60;1.00;;;;;;;22.95;81.72;101551.19;5010530;28;20123;-35
2022/06/26 08:32:04;;;;;;;3.70;1.00;;;;;;;22.90;83.03;101551.47;5010182;28;20137;-30
2022/06/26 08:34:32;;;;;;;4.43;1.08;;;;;;;23.26;84.80;101544.66;5010564;28;20145;-32
2022/06/26 08:37:00;;;;;;;4.07;1.00;;;;;;;23.70;82.66;101542.47;5010288;28;20045;-30
2022/06/26 08:39:28;;;;;;;4.65;1.30;;;;;;;24.25;82.55;101557.56;4990224;28;20050;-29
2022/06/26 08:41:56;;;;;;;3.00;0.93;;;;;;;24.59;77.31;101552.09;5007905;28;20141;-30
2022/06/26 08:44:25;;;;;;;4.28;0.90;;;;;;;24.80;75.87;101549.66;5011135;28;20068;-36
2022/06/26 08:46:55;;;;;;;4.65;1.00;;;;;;;24.95;74.68;101557.34;5009178;28;20050;-32
2022/06/26 08:49:24;;;;;;;5.40;1.00;;;;;;;24.86;70.38;101562.44;5011329;28;20058;-29
2022/06/26 08:51:59;;;;;;;2.97;1.00;;;;;;;24.45;68.15;101560.41;5010026;28;20533;-30
2022/06/26 08:54:28;;;;;;;3.53;1.20;;;;;;;24.25;66.36;101560.41;5011210;28;20491;-33
2022/06/26 08:56:57;;;;;;;3.13;0.90;;;;;;;24.34;70.08;101569.59;5011021;28;20119;-36
2022/06/26 08:59:26;;;;;;;3.38;0.88;;;;;;;24.54;68.37;101576.09;5009760;28;20491;-31
2022/06/26 09:01:56;;;;;;;3.58;1.08;;;;;;;24.51;67.28;101576.03;5010498;28;20053;-29
2022/06/26 09:04:24;;;;;;;2.72;0.93;;;;;;;24.25;68.37;101579.56;5011139;28;20419;-29
2022/06/26 09:06:52;;;;;;;3.55;1.00;;;;;;;24.17;69.11;101577.72;5010471;28;20092;-28
2022/06/26 09:09:23;;;;;;;3.92;1.15;;;;;;;24.18;70.89;101568.78;5011111;28;20048;-31
2022/06/26 09:11:52;;;;;;;5.18;1.00;;;;;;;24.34;72.49;101571.59;5010624;28;20122;-32
2022/06/26 09:14:22;;;;;;;2.65;0.90;;;;;;;24.62;70.68;101571.34;5010167;28;20046;-29
2022/06/26 09:16:52;;;;;;;3.70;1.10;;;;;;;24.88;69.41;101577.16;5010315;28;20044;-35
2022/06/26 09:19:24;;;;;;;3.25;1.10;;;;;;;25.09;69.01;101575.91;5010689;28;20521;-29
2022/06/26 09:22:04;;;;;;;3.45;1.00;;;;;;;25.27;69.19;101582.75;5009129;28;20085;-32
2022/06/26 09:24:36;;;;;;;3.20;1.17;;;;;;;25.43;68.44;101583.44;5010804;28;20074;-40
2022/06/26 09:27:06;;;;;;;3.03;0.95;;;;;;;25.75;68.11;101575.41;5009283;28;20073;-34
2022/06/26 09:29:34;;;;;;;4.45;0.90;;;;;;;26.02;65.69;101585.59;5010134;28;20108;-29
2022/06/26 09:32:10;;;;;;;3.28;1.13;;;;;;;26.03;65.22;101584.38;5010410;28;20046;-36
2022/06/26 09:34:44;;;;;;;3.78;1.17;;;;;;;26.18;66.46;101579.69;5007469;28;20144;-29
2022/06/26 09:37:12;;;;;;;4.43;1.20;;;;;;;26.29;65.54;101580.69;5010110;28;20073;-30
2022/06/26 09:39:40;;;;;;;3.35;1.00;;;;;;;26.19;65.25;101581.31;5010642;28;20426;-34
2022/06/26 09:42:19;;;;;;;3.00;1.00;;;;;;;25.87;59.56;101588.66;5009755;28;20125;-28
2022/06/26 09:44:48;;;;;;;3.60;1.17;;;;;;;25.62;62.82;101574.81;5010221;28;20727;-34
2022/06/26 09:47:22;;;;;;;1.70;0.88;;;;;;;25.77;62.93;101578.72;5010497;28;20374;-30
2022/06/26 09:49:53;;;;;;;5.20;1.20;;;;;;;25.65;61.86;101578.91;5009576;28;20133;-29
2022/06/26 09:52:23;;;;;;;3.45;1.33;;;;;;;25.46;62.66;101568.38;5010194;28;20038;-31
2022/06/26 09:54:52;;;;;;;4.07;1.13;;;;;;;25.46;61.69;101570.41;5010229;28;20165;-32
2022/06/26 09:57:26;;;;;;;2.85;1.13;;;;;;;25.22;63.01;101568.78;5010058;28;20062;-31
2022/06/26 09:59:55;;;;;;;3.90;0.98;;;;;;;25.02;63.78;101568.03;5008341;28;20418;-30
2022/06/26 10:08:04;;;;;;;5.88;1.08;;;;;;;25.15;65.57;101580.94;4997983;28;20495;-34
2022/06/26 10:10:33;;;;;;;2.90;0.73;;;;;;;25.36;63.86;101577.63;5008660;28;20657;-29
2022/06/26 10:13:05;;;;;;;3.50;1.17;;;;;;;25.42;64.35;101582.63;5009898;28;20441;-38
2022/06/26 10:15:36;;;;;;;3.80;1.00;;;;;;;25.25;63.78;101593.75;5009961;28;20482;-29
2022/06/26 10:18:25;;;;;;;2.63;1.10;;;;;;;25.31;63.01;101600.81;5009662;28;20053;-29
2022/06/26 10:20:57;;;;;;;3.50;1.23;;;;;;;25.41;64.55;101603.81;5010063;28;20054;-30
2022/06/26 10:23:33;;;;;;;3.85;0.90;;;;;;;25.40;63.90;101601.34;5009463;28;20042;-31
2022/06/26 10:26:12;;;;;;;3.15;1.20;;;;;;;25.44;64.63;101602.25;5010027;28;20088;-30
2022/06/26 10:28:56;;;;;;;3.05;1.10;;;;;;;25.30;61.78;101619.16;5010239;28;20060;-31
2022/06/26 10:31:24;;;;;;;3.78;1.10;;;;;;;25.16;64.62;101616.06;5006869;28;20041;-35
2022/06/26 10:33:52;;;;;;;4.10;1.27;;;;;;;25.05;65.19;101618.69;5012632;28;20072;-30
2022/06/26 10:36:25;;;;;;;3.15;0.90;;;;;;;25.09;66.02;101611.03;5013379;28;20042;-34
2022/06/26 10:39:04;;;;;;;4.60;1.02;;;;;;;25.23;66.50;101616.97;5012629;28;20479;-34
2022/06/26 10:44:34;;;;;;;2.78;0.90;;;;;;;25.59;66.73;101614.72;5012397;28;20053;-29
2022/06/26 10:47:13;;;;;;;4.05;1.15;;;;;;;25.83;64.91;101622.09;5013874;28;20072;-31
2022/06/26 10:49:53;;;;;;;4.35;1.13;;;;;;;25.88;62.20;101616.03;5013168;28;20133;-39
2022/06/26 10:52:27;;;;;;;5.10;1.10;;;;;;;25.81;63.20;101611.03;5012675;28;20129;-31
2022/06/26 10:54:57;;;;;;;3.95;0.95;;;;;;;25.83;63.92;101602.06;5012786;28;20038;-39
2022/06/26 10:57:36;;;;;;;3.80;1.02;;;;;;;26.12;63.18;101603.31;5012747;28;20042;-36
2022/06/26 11:00:06;;;;;;;4.63;0.85;;;;;;;26.13;62.18;101608.66;5012086;28;20034;-29
2022/06/26 11:02:37;;;;;;;3.78;1.13;;;;;;;26.03;60.96;101615.03;5013186;28;20731;-28
2022/06/26 11:05:07;;;;;;;4.28;1.45;;;;;;;25.92;61.51;101612.03;5013639;28;20050;-30
2022/06/26 11:07:47;;;;;;;2.85;1.13;;;;;;;25.95;60.17;101616.16;5012172;28;20045;-29
2022/06/26 11:10:17;;;;;;;3.40;0.90;;;;;;;25.82;60.69;101617.56;5012818;28;20053;-31
2022/06/26 11:12:46;;;;;;;3.60;0.90;;;;;;;25.54;61.60;101617.94;5012245;28;20046;-29
2022/06/26 11:15:27;;;;;;;3.80;1.10;;;;;;;25.46;60.72;101624.72;5013065;28;20030;-30
2022/06/26 11:17:57;;;;;;;3.55;0.80;;;;;;;25.31;61.93;101615.09;5012655;28;20087;-32
2022/06/26 11:23:14;;;;;;;3.67;1.02;;;;;;;25.06;62.10;101609.75;5009450;28;20120;-33
2022/06/26 11:25:42;;;;;;;4.22;1.10;;;;;;;24.85;61.89;101615.03;5011419;28;20048;-29
2022/06/26 11:28:11;;;;;;;3.63;0.80;;;;;;;24.93;62.08;101621.72;5009989;28;20050;-30
2022/06/26 11:30:41;;;;;;;2.95;1.10;;;;;;;24.86;61.75;101621.56;5012543;28;20054;-30
2022/06/26 11:33:10;;;;;;;4.40;1.05;;;;;;;24.50;60.67;101615.16;5012590;28;20054;-31
2022/06/26 11:35:37;;;;;;;2.88;0.82;;;;;;;24.43;63.12;101625.56;5011410;28;20056;-30
2022/06/26 11:38:10;;;;;;;2.75;0.90;;;;;;;24.45;61.37;101621.16;5011755;28;20050;-30
2022/06/26 11:40:40;;;;;;;2.67;0.82;;;;;;;24.31;61.52;101624.53;5011911;28;20149;-30
2022/06/26 11:43:09;;;;;;;3.50;1.23;;;;;;;24.19;61.96;101624.63;5011054;28;20058;-30
2022/06/26 11:45:39;;;;;;;3.33;0.88;;;;;;;24.13;62.94;101633.84;4994630;28;20052;-30
2022/06/26 11:48:10;;;;;;;4.70;0.87;;;;;;;24.05;63.46;101633.69;5010809;28;20054;-29
2022/06/26 11:50:38;;;;;;;3.38;1.00;;;;;;;24.03;64.13;101623.84;5011443;28;20597;-29